69FD weather

Unicorn Place Airport
Defuniak Springs, Florida, United States

Public forecast

Using degrees Fahrenheit for public forecast. Weather courtesy of forecast.io.

METAR (pilot weather report)

Closest report is Defuniak Springs Airport, 9.5 nm (17.7 km) SE. Retrieved 2018/07/15 22:35 UTC (0 seconds ago):

K54J 152235Z AUTO 00000KT 10SM RA OVC095 24/23 A3002 RMK AO2 LTG DSNT SW THRU N P0011 T02390226

TAF (pilot weather forecast)

Forecast is more than 12 hours old.

Closest forecast is Duke Field, 17.1 nm (31.6 km) SW. Retrieved 2018/07/14 09:08 UTC (2 days ago):

TAF KEGI 140900Z 1409/1515 34005KT 9999 FEW030 QNH3006INS BECMG 1418/1419 20010KT 9999 VCTS SCT040CB BKN300 QNH3002INS BECMG 1421/1422 23005KT 9999 NSW FEW035 SCT300 QNH3001INS TX35/1419Z TN22/1411Z LAST NO AMDS AFT 1409 NEXT 1413